This is the latest recevied weather packets stored in our database for station/object HK5VD-30. If no packets are shown the sender has not sent any weather packets the latest 10 day(s).
| Time | Temp. | Humidity | Pressure | Rain* | Wind** | Luminosity | Snow |
|---|---|---|---|---|---|---|---|
| 1788433028 | 21.67° C | 83% | 1014 hPa | 0 mm | - | - | - |
| 1788431227 | 21.11° C | 83% | 1013 hPa | 0 mm | - | - | - |
| 1788429426 | 22.78° C | 83% | 1013 hPa | 0 mm | - | - | - |
| 1788427625 | 22.22° C | 83% | 1013 hPa | 0 mm | - | - | - |
| 1788424023 | 21.11° C | 83% | 1013 hPa | 0 mm | - | - | - |
| 1788422223 | 20.56° C | 83% | 1013 hPa | 0 mm | - | - | - |
| 1788420421 | 23.33° C | 70% | 1013 hPa | 0 mm | - | - | - |
| 1788418620 | 22.78° C | 70% | 1013 hPa | 0 mm | - | - | - |
| 1788416819 | 22.22° C | 70% | 1014 hPa | 0 mm | - | - | - |
| 1788415018 | 21.67° C | 70% | 1014 hPa | 0 mm | - | - | - |
| 1788413217 | 21.11° C | 70% | 1014 hPa | 0.25 mm | - | - | - |
| 1788411416 | 25° C | 69% | 1014 hPa | 0.25 mm | - | - | - |
| 1788409615 | 25° C | 69% | 1014 hPa | 0 mm | - | - | - |
| 1788407814 | 25° C | 69% | 1014 hPa | 0 mm | - | - | - |
| 1788406014 | 25° C | 69% | 1014 hPa | 0.25 mm | - | - | - |
| 1788404213 | 25.56° C | 65% | 1014 hPa | 0.25 mm | - | - | - |
| 1788377196 | 29.44° C | 88% | 1009 hPa | 0 mm | - | - | - |
| 1788375395 | 28.89° C | 88% | 1009 hPa | 0 mm | - | - | - |
| 1788371793 | 27.78° C | 88% | 1011 hPa | 0 mm | - | - | - |
| 1788368191 | 26.67° C | 88% | 1012 hPa | 0 mm | - | - | - |
| 1788359185 | 23.89° C | 88% | 1016 hPa | 0 mm | - | - | - |
| 1788355583 | 22.78° C | 88% | 1016 hPa | 0 mm | - | - | - |
| 1788353782 | 22.22° C | 88% | 1016 hPa | 0 mm | - | - | - |
| 1788351981 | 21.67° C | 88% | 1016 hPa | 0 mm | - | - | - |
| 1788348379 | 20.56° C | 88% | 1015 hPa | 0 mm | - | - | - |
* Rain latest hour (hover to see other rain measurements)
** Current wind speed in m/s (hover to see current wind gust speed)